createdAt,value
2018-12-17T00:02:26.038Z,100395.67
2018-12-17T00:04:54.140Z,100393.17
2018-12-17T00:07:22.311Z,100393.34
2018-12-17T00:09:50.463Z,100382.38
2018-12-17T00:12:19.435Z,100389.87
2018-12-17T00:14:47.555Z,100394.69
2018-12-17T00:17:15.865Z,100396.70
2018-12-17T00:19:43.963Z,100387.87
2018-12-17T00:22:12.103Z,100385.39
2018-12-17T00:24:40.704Z,100386.36
2018-12-17T00:27:09.011Z,100384.39
2018-12-17T00:29:37.210Z,100382.72
2018-12-17T00:32:05.564Z,100385.55
2018-12-17T00:34:33.922Z,100379.23
2018-12-17T00:37:02.189Z,100383.72
2018-12-17T00:39:30.671Z,100382.88
2018-12-17T00:41:58.860Z,100386.72
2018-12-17T00:44:27.241Z,100383.71
2018-12-17T00:46:56.175Z,100385.05
2018-12-17T00:49:24.338Z,100388.20
2018-12-17T00:51:52.523Z,100397.18
2018-12-17T00:54:20.642Z,100393.02
2018-12-17T00:56:48.953Z,100400.33
2018-12-17T00:59:17.304Z,100401.33
2018-12-17T01:01:45.452Z,100408.33
2018-12-17T01:04:13.802Z,100425.96
2018-12-17T01:06:42.006Z,100421.95
2018-12-17T01:09:10.304Z,100425.59
2018-12-17T01:11:38.528Z,100434.89
2018-12-17T01:14:06.840Z,100422.81
2018-12-17T01:16:34.988Z,100426.61
2018-12-17T01:19:03.252Z,100425.77
2018-12-17T01:21:31.987Z,100426.45
2018-12-17T01:24:00.313Z,100432.93
2018-12-17T01:26:29.119Z,100435.59
2018-12-17T01:28:57.327Z,100438.57
2018-12-17T01:31:25.470Z,100444.25
2018-12-17T01:33:53.882Z,100452.69
2018-12-17T01:36:22.009Z,100458.18
2018-12-17T01:38:50.120Z,100459.53
2018-12-17T01:41:18.289Z,100459.39
2018-12-17T01:43:46.390Z,100460.84
2018-12-17T01:46:14.569Z,100458.52
2018-12-17T01:48:42.976Z,100463.34
2018-12-17T01:51:11.107Z,100461.17
2018-12-17T01:53:39.874Z,100463.17
2018-12-17T01:56:08.007Z,100465.87
2018-12-17T01:58:36.322Z,100457.06
2018-12-17T02:01:04.832Z,100458.73
2018-12-17T02:03:33.306Z,100465.33
2018-12-17T02:06:01.690Z,100466.53
2018-12-17T02:08:30.612Z,100465.39
2018-12-17T02:10:59.027Z,100465.22
2018-12-17T02:13:27.122Z,100464.37
2018-12-17T02:15:55.489Z,100466.53
2018-12-17T02:18:23.869Z,100454.09
2018-12-17T02:20:52.029Z,100464.41
2018-12-17T02:23:20.319Z,100470.03
2018-12-17T02:25:48.677Z,100474.53
2018-12-17T02:28:16.867Z,100476.22
2018-12-17T02:30:45.167Z,100479.38
2018-12-17T02:33:14.260Z,100483.20
2018-12-17T02:35:42.614Z,100489.55
2018-12-17T02:38:10.777Z,100494.02
2018-12-17T02:40:39.045Z,100481.86
2018-12-17T02:43:07.175Z,100477.37
2018-12-17T02:45:35.323Z,100481.71
2018-12-17T02:48:03.665Z,100481.84
2018-12-17T02:50:31.813Z,100487.52
2018-12-17T02:52:59.917Z,100489.70
2018-12-17T02:55:28.343Z,100487.50
2018-12-17T02:57:56.485Z,100494.00
2018-12-17T03:00:24.829Z,100492.16
2018-12-17T03:02:52.990Z,100493.69
2018-12-17T03:05:21.779Z,100496.00
2018-12-17T03:07:56.647Z,100492.51
2018-12-17T03:10:25.065Z,100492.66
2018-12-17T03:12:53.258Z,100501.82
2018-12-17T03:15:21.657Z,100510.30
2018-12-17T03:17:50.053Z,100510.14
2018-12-17T03:20:18.434Z,100510.97
2018-12-17T03:22:46.594Z,100508.28
2018-12-17T03:25:14.817Z,100505.46
2018-12-17T03:27:43.063Z,100508.80
2018-12-17T03:30:11.296Z,100506.78
2018-12-17T03:32:39.370Z,100513.65
2018-12-17T03:35:08.039Z,100508.80
2018-12-17T03:37:37.175Z,100509.64
2018-12-17T03:40:06.132Z,100506.17
2018-12-17T03:42:34.200Z,100508.50
2018-12-17T03:45:03.576Z,100513.13
2018-12-17T03:47:31.901Z,100512.14
2018-12-17T03:50:00.208Z,100521.14
2018-12-17T03:52:29.310Z,100526.95
2018-12-17T03:54:57.711Z,100525.78
2018-12-17T03:57:27.114Z,100531.63
2018-12-17T03:59:55.396Z,100544.10
2018-12-17T04:02:23.550Z,100536.77
2018-12-17T04:04:52.586Z,100542.08
2018-12-17T04:07:20.955Z,100545.72
2018-12-17T04:09:49.934Z,100542.37
2018-12-17T04:12:19.116Z,100551.73
2018-12-17T04:14:48.041Z,100564.19
2018-12-17T04:17:16.310Z,100556.38
2018-12-17T04:19:45.104Z,100555.23
2018-12-17T04:22:13.294Z,100564.55
2018-12-17T04:24:42.239Z,100558.37
2018-12-17T04:27:10.509Z,100566.22
2018-12-17T04:29:38.874Z,100566.24
2018-12-17T04:32:07.197Z,100570.86
2018-12-17T04:34:35.292Z,100577.98
2018-12-17T04:37:03.400Z,100576.48
2018-12-17T04:39:31.547Z,100579.30
2018-12-17T04:41:59.866Z,100578.42
2018-12-17T04:44:27.968Z,100574.97
2018-12-17T04:46:56.137Z,100579.41
2018-12-17T04:49:24.311Z,100584.45
2018-12-17T04:51:53.099Z,100582.69
2018-12-17T04:54:21.203Z,100585.31
2018-12-17T04:56:49.465Z,100581.48
2018-12-17T04:59:17.637Z,100584.66
2018-12-17T05:01:45.915Z,100592.64
2018-12-17T05:04:14.105Z,100599.97
2018-12-17T05:06:43.311Z,100593.45
2018-12-17T05:09:11.432Z,100595.95
2018-12-17T05:11:39.786Z,100597.97
2018-12-17T05:14:08.095Z,100593.97
2018-12-17T05:16:36.376Z,100601.61
2018-12-17T05:19:06.117Z,100611.95
2018-12-17T05:21:34.350Z,100615.91
2018-12-17T05:24:02.459Z,100621.41
2018-12-17T05:26:30.804Z,100629.53
2018-12-17T05:28:59.079Z,100630.26
2018-12-17T05:31:27.181Z,100633.62
2018-12-17T05:33:55.332Z,100648.51
2018-12-17T05:36:23.876Z,100645.36
2018-12-17T05:38:52.159Z,100652.58
2018-12-17T05:41:21.485Z,100657.36
2018-12-17T05:43:49.794Z,100654.45
2018-12-17T05:46:18.157Z,100653.45
2018-12-17T05:48:46.498Z,100657.73
2018-12-17T05:51:14.798Z,100653.99
2018-12-17T05:53:42.902Z,100656.98
2018-12-17T05:56:11.164Z,100660.87
2018-12-17T05:58:39.541Z,100662.14
2018-12-17T06:01:07.911Z,100669.12
2018-12-17T06:03:36.266Z,100675.22
2018-12-17T06:06:05.160Z,100677.46
2018-12-17T06:08:33.467Z,100674.83
2018-12-17T06:11:01.626Z,100682.97
2018-12-17T06:13:29.790Z,100679.17
2018-12-17T06:15:58.480Z,100687.61
2018-12-17T06:18:26.738Z,100694.11
2018-12-17T06:20:55.155Z,100702.64
2018-12-17T06:23:23.290Z,100704.98
2018-12-17T06:25:51.467Z,100707.74
2018-12-17T06:28:19.824Z,100701.89
2018-12-17T06:30:48.020Z,100707.94
2018-12-17T06:33:16.194Z,100707.61
2018-12-17T06:35:44.334Z,100713.71
2018-12-17T06:38:12.990Z,100707.09
2018-12-17T06:40:41.425Z,100699.95
2018-12-17T06:43:09.531Z,100709.88
2018-12-17T06:45:38.011Z,100710.89
2018-12-17T06:48:06.179Z,100712.94
2018-12-17T06:50:34.325Z,100722.83
2018-12-17T06:53:02.483Z,100720.19
2018-12-17T06:55:30.621Z,100718.51
2018-12-17T06:57:59.203Z,100716.52
2018-12-17T07:00:27.485Z,100720.92
2018-12-17T07:02:55.725Z,100728.88
2018-12-17T07:05:23.946Z,100738.67
2018-12-17T07:07:52.113Z,100729.23
2018-12-17T07:10:20.389Z,100743.34
2018-12-17T07:12:48.663Z,100741.66
2018-12-17T07:15:16.798Z,100751.63
2018-12-17T07:17:45.016Z,100752.60
2018-12-17T07:20:13.251Z,100756.27
2018-12-17T07:22:41.397Z,100753.53
2018-12-17T07:25:09.640Z,100757.66
2018-12-17T07:27:37.952Z,100759.30
2018-12-17T07:30:07.377Z,100756.52
2018-12-17T07:32:36.037Z,100764.52
2018-12-17T07:35:04.902Z,100763.06
2018-12-17T07:37:32.998Z,100769.02
2018-12-17T07:40:01.130Z,100774.03
2018-12-17T07:42:29.258Z,100768.75
2018-12-17T07:44:57.397Z,100775.25
2018-12-17T07:47:25.616Z,100776.93
2018-12-17T07:49:53.968Z,100784.71
2018-12-17T07:52:22.090Z,100782.75
2018-12-17T07:54:50.208Z,100791.02
2018-12-17T07:57:19.363Z,100785.44
2018-12-17T07:59:47.502Z,100792.61
2018-12-17T08:02:15.654Z,100796.63
2018-12-17T08:04:43.925Z,100799.25
2018-12-17T08:07:13.016Z,100802.00
2018-12-17T08:09:41.355Z,100804.93
2018-12-17T08:12:09.614Z,100809.63
2018-12-17T08:14:37.703Z,100805.00
2018-12-17T08:17:05.878Z,100806.68
2018-12-17T08:19:34.207Z,100807.03
2018-12-17T08:22:02.471Z,100807.05
2018-12-17T08:24:31.270Z,100811.41
2018-12-17T08:26:59.688Z,100809.77
2018-12-17T08:29:27.975Z,100807.94
2018-12-17T08:31:56.095Z,100802.43
2018-12-17T08:34:24.187Z,100798.09
2018-12-17T08:36:52.267Z,100803.44
2018-12-17T08:39:20.619Z,100801.77
2018-12-17T08:41:48.690Z,100812.77
2018-12-17T08:44:16.910Z,100814.27
2018-12-17T08:46:45.096Z,100825.76
2018-12-17T08:49:13.303Z,100825.08
2018-12-17T08:51:41.508Z,100828.30
2018-12-17T08:54:09.664Z,100831.13
2018-12-17T08:56:37.856Z,100842.15
2018-12-17T08:59:06.072Z,100840.64
2018-12-17T09:01:34.167Z,100847.32
2018-12-17T09:04:02.338Z,100846.63
2018-12-17T09:06:30.493Z,100852.09
2018-12-17T09:08:58.601Z,100851.80
2018-12-17T09:11:27.268Z,100849.25
2018-12-17T09:13:55.693Z,100852.27
2018-12-17T09:16:23.906Z,100843.09
2018-12-17T09:18:52.868Z,100844.11
2018-12-17T09:21:21.071Z,100847.72
2018-12-17T09:23:49.276Z,100845.03
2018-12-17T09:26:17.451Z,100837.70
2018-12-17T09:28:45.668Z,100840.20
2018-12-17T09:31:13.808Z,100843.27
2018-12-17T09:33:42.010Z,100843.84
2018-12-17T09:36:10.206Z,100846.55
2018-12-17T09:38:38.491Z,100853.42
2018-12-17T09:41:06.634Z,100852.59
2018-12-17T09:43:34.775Z,100857.55
2018-12-17T09:46:03.182Z,100857.61
2018-12-17T09:48:31.344Z,100862.39
2018-12-17T09:50:59.588Z,100859.86
2018-12-17T09:53:27.680Z,100861.39
2018-12-17T09:55:55.919Z,100861.15
2018-12-17T09:58:24.139Z,100866.23
2018-12-17T10:00:53.424Z,100853.73
2018-12-17T10:03:21.631Z,100858.45
2018-12-17T10:05:49.953Z,100869.55
2018-12-17T10:08:18.133Z,100862.28
2018-12-17T10:10:47.975Z,100853.62
2018-12-17T10:13:16.051Z,100850.55
2018-12-17T10:15:44.209Z,100848.17
2018-12-17T10:18:12.515Z,100849.38
2018-12-17T10:20:40.643Z,100841.61
2018-12-17T10:23:08.957Z,100847.52
2018-12-17T10:25:37.147Z,100852.61
2018-12-17T10:28:05.363Z,100852.57
2018-12-17T10:30:33.529Z,100841.59
2018-12-17T10:33:01.653Z,100835.05
2018-12-17T10:35:29.850Z,100831.55
2018-12-17T10:37:57.991Z,100839.74
2018-12-17T10:40:26.176Z,100841.84
2018-12-17T10:42:54.373Z,100844.95
2018-12-17T10:45:23.367Z,100855.83
2018-12-17T10:47:51.512Z,100856.05
2018-12-17T10:50:19.645Z,100857.69
2018-12-17T10:52:47.761Z,100860.09
2018-12-17T10:55:15.994Z,100852.52
2018-12-17T10:57:44.174Z,100856.16
2018-12-17T11:00:17.686Z,100853.41
2018-12-17T11:02:46.081Z,100854.95
2018-12-17T11:05:15.943Z,100861.63
2018-12-17T11:07:44.174Z,100867.89
2018-12-17T11:10:12.531Z,100862.30
2018-12-17T11:12:40.743Z,100862.56
2018-12-17T11:15:10.745Z,100861.44
2018-12-17T11:17:40.101Z,100859.98
2018-12-17T11:20:10.014Z,100863.05
2018-12-17T11:22:38.217Z,100864.80
2018-12-17T11:25:07.239Z,100860.10
2018-12-17T11:27:35.548Z,100860.37
2018-12-17T11:30:06.484Z,100864.81
2018-12-17T11:32:34.665Z,100862.22
2018-12-17T11:35:03.365Z,100858.09
2018-12-17T11:37:31.692Z,100854.67
2018-12-17T11:39:59.843Z,100846.61
2018-12-17T11:42:28.630Z,100852.38
2018-12-17T11:44:56.924Z,100849.59
2018-12-17T11:47:25.257Z,100844.81
2018-12-17T11:49:53.367Z,100848.27
2018-12-17T11:52:21.590Z,100855.19
2018-12-17T11:54:49.760Z,100853.14
2018-12-17T11:58:23.074Z,100865.03
2018-12-17T12:00:57.074Z,100859.42
2018-12-17T12:03:26.127Z,100855.89
2018-12-17T12:05:54.465Z,100858.02
2018-12-17T12:08:22.615Z,100871.58
2018-12-17T12:10:50.828Z,100862.67
2018-12-17T12:13:18.989Z,100873.96
2018-12-17T12:15:47.112Z,100858.86
2018-12-17T12:18:15.369Z,100863.35
2018-12-17T12:20:43.668Z,100859.27
2018-12-17T12:23:11.888Z,100860.87
2018-12-17T12:25:40.025Z,100867.58
2018-12-17T12:28:08.167Z,100859.14
2018-12-17T12:30:36.477Z,100859.68
2018-12-17T12:33:05.022Z,100874.23
2018-12-17T12:35:33.199Z,100858.68
2018-12-17T12:38:01.361Z,100873.78
2018-12-17T12:40:29.539Z,100868.22
2018-12-17T12:42:57.697Z,100872.14
2018-12-17T12:45:25.823Z,100877.13
2018-12-17T12:47:54.687Z,100881.02
2018-12-17T12:50:22.909Z,100881.59
2018-12-17T12:52:51.087Z,100874.20
2018-12-17T12:55:19.257Z,100878.20
2018-12-17T12:57:47.447Z,100876.18
2018-12-17T13:00:16.671Z,100882.92
2018-12-17T13:02:44.921Z,100882.59
2018-12-17T13:05:13.163Z,100883.40
2018-12-17T13:07:41.479Z,100888.59
2018-12-17T13:10:10.808Z,100888.33
2018-12-17T13:12:39.179Z,100881.59
2018-12-17T13:15:09.131Z,100879.14
2018-12-17T13:17:37.910Z,100883.61
2018-12-17T13:20:08.251Z,100884.19
2018-12-17T13:22:36.568Z,100883.09
2018-12-17T13:25:07.894Z,100883.39
2018-12-17T13:27:36.080Z,100888.07
2018-12-17T13:30:07.509Z,100894.52
2018-12-17T13:32:35.683Z,100896.52
2018-12-17T13:35:04.469Z,100896.37
2018-12-17T13:37:32.682Z,100896.31
2018-12-17T13:40:00.848Z,100891.44
2018-12-17T13:42:29.015Z,100898.00
2018-12-17T13:44:57.760Z,100897.63
2018-12-17T13:47:25.954Z,100902.85
2018-12-17T13:49:54.134Z,100909.91
2018-12-17T13:52:28.034Z,100904.77
2018-12-17T13:54:57.102Z,100906.77
2018-12-17T13:57:25.519Z,100905.06
2018-12-17T13:59:53.631Z,100907.30
2018-12-17T14:02:21.823Z,100912.42
2018-12-17T14:04:50.033Z,100908.47
2018-12-17T14:07:18.184Z,100905.23
2018-12-17T14:09:51.890Z,100911.20
2018-12-17T14:12:20.215Z,100913.83
2018-12-17T14:14:48.369Z,100912.31
2018-12-17T14:17:22.156Z,100918.45
2018-12-17T14:20:58.652Z,100910.17
2018-12-17T14:23:26.921Z,100915.36
2018-12-17T14:25:55.155Z,100921.34
2018-12-17T14:28:23.395Z,100915.20
2018-12-17T14:30:51.603Z,100916.19
2018-12-17T14:33:19.730Z,100915.06
2018-12-17T14:35:53.616Z,100917.39
2018-12-17T14:38:21.776Z,100923.27
2018-12-17T14:40:50.066Z,100932.36
2018-12-17T14:43:18.214Z,100942.41
2018-12-17T14:45:46.406Z,100944.41
2018-12-17T14:48:14.656Z,100944.94
2018-12-17T14:50:42.785Z,100937.09
2018-12-17T14:53:10.966Z,100944.94
2018-12-17T14:55:39.104Z,100942.44
2018-12-17T14:58:07.281Z,100945.94
2018-12-17T15:00:35.471Z,100948.78
2018-12-17T15:03:03.905Z,100948.59
2018-12-17T15:05:33.030Z,100949.94
2018-12-17T15:08:01.204Z,100957.31
2018-12-17T15:10:29.612Z,100957.29
2018-12-17T15:12:57.792Z,100955.96
2018-12-17T15:15:25.947Z,100958.63
2018-12-17T15:17:54.231Z,100969.33
2018-12-17T15:20:22.379Z,100966.81
2018-12-17T15:22:50.474Z,100971.84
2018-12-17T15:25:18.742Z,100969.17
2018-12-17T15:27:47.011Z,100972.69
2018-12-17T15:30:15.330Z,100975.69
2018-12-17T15:32:43.528Z,100981.87
2018-12-17T15:35:11.653Z,100982.86
2018-12-17T15:37:39.867Z,100988.36
2018-12-17T15:40:08.245Z,100991.23
2018-12-17T15:42:40.881Z,100995.55
2018-12-17T15:45:08.302Z,100997.58
2018-12-17T15:47:36.521Z,101001.58
2018-12-17T15:50:05.065Z,100998.23
2018-12-17T15:52:33.264Z,101006.27
2018-12-17T15:55:02.440Z,100997.73
2018-12-17T15:57:31.027Z,101002.39
2018-12-17T15:59:59.185Z,101006.73
2018-12-17T16:02:27.290Z,101006.40
2018-12-17T16:04:55.588Z,101007.08
2018-12-17T16:07:24.316Z,101012.41
2018-12-17T16:09:55.409Z,101019.42
2018-12-17T16:12:24.071Z,101014.27
2018-12-17T16:14:52.221Z,101021.43
2018-12-17T16:17:20.341Z,101024.61
2018-12-17T16:19:48.455Z,101035.16
2018-12-17T16:22:16.774Z,101031.64
2018-12-17T16:24:44.931Z,101033.81
2018-12-17T16:27:19.166Z,101034.80
2018-12-17T16:29:43.531Z,101043.49
2018-12-17T16:32:11.739Z,101038.02
2018-12-17T16:34:39.926Z,101045.34
2018-12-17T16:37:08.307Z,101050.23
2018-12-17T16:39:36.508Z,101051.88
2018-12-17T16:42:04.645Z,101055.23
2018-12-17T16:44:32.774Z,101057.75
2018-12-17T16:47:01.050Z,101066.43
2018-12-17T16:49:29.299Z,101060.23
2018-12-17T16:51:57.422Z,101068.77
2018-12-17T16:54:25.596Z,101060.88
2018-12-17T16:56:53.821Z,101064.27
2018-12-17T16:59:21.946Z,101067.58
2018-12-17T17:01:50.058Z,101070.09
2018-12-17T17:04:18.194Z,101072.44
2018-12-17T17:06:46.411Z,101081.97
2018-12-17T17:09:15.228Z,101084.13
2018-12-17T17:11:43.422Z,101087.63
2018-12-17T17:14:11.633Z,101084.31
2018-12-17T17:16:39.936Z,101088.66
2018-12-17T17:19:08.074Z,101086.31
2018-12-17T17:21:36.376Z,101088.81
2018-12-17T17:24:04.665Z,101095.19
2018-12-17T17:26:33.012Z,101090.48
2018-12-17T17:29:01.244Z,101097.67
2018-12-17T17:31:29.600Z,101102.19
2018-12-17T17:33:58.809Z,101101.17
2018-12-17T17:36:27.192Z,101101.52
2018-12-17T17:38:55.594Z,101108.36
2018-12-17T17:41:23.893Z,101111.38
2018-12-17T17:43:52.189Z,101115.74
2018-12-17T17:46:21.301Z,101108.05
2018-12-17T17:48:49.706Z,101116.89
2018-12-17T17:51:17.927Z,101116.22
2018-12-17T17:53:46.261Z,101114.71
2018-12-17T17:56:14.696Z,101114.74
2018-12-17T17:58:43.195Z,101122.06
2018-12-17T18:01:11.425Z,101124.09
2018-12-17T18:03:39.573Z,101125.58
2018-12-17T18:06:07.783Z,101128.78
2018-12-17T18:08:35.953Z,101129.77
2018-12-17T18:11:04.292Z,101130.11
2018-12-17T18:13:32.433Z,101138.13
2018-12-17T18:16:00.752Z,101136.45
2018-12-17T18:18:28.945Z,101141.64
2018-12-17T18:20:57.144Z,101153.36
2018-12-17T18:23:25.353Z,101151.69
2018-12-17T18:25:53.524Z,101164.88
2018-12-17T18:28:21.764Z,101169.73
2018-12-17T18:30:50.264Z,101166.90
2018-12-17T18:33:18.527Z,101174.08
2018-12-17T18:35:46.888Z,101178.42
2018-12-17T18:38:15.073Z,101176.24
2018-12-17T18:40:43.340Z,101178.27
2018-12-17T18:43:11.774Z,101183.45
2018-12-17T18:45:39.980Z,101198.48
2018-12-17T18:48:08.202Z,101195.13
2018-12-17T18:50:36.340Z,101200.65
2018-12-17T18:53:04.579Z,101205.03
2018-12-17T18:55:32.726Z,101201.84
2018-12-17T18:58:00.988Z,101196.34
2018-12-17T19:00:29.221Z,101190.66
2018-12-17T19:02:57.404Z,101186.30
2018-12-17T19:05:25.588Z,101196.16
2018-12-17T19:07:54.078Z,101197.49
2018-12-17T19:10:22.248Z,101198.84
2018-12-17T19:12:50.476Z,101200.33
2018-12-17T19:15:18.806Z,101204.70
2018-12-17T19:17:47.057Z,101210.72
2018-12-17T19:20:15.234Z,101216.37
2018-12-17T19:22:44.116Z,101214.05
2018-12-17T19:25:12.450Z,101216.20
2018-12-17T19:27:40.670Z,101214.04
2018-12-17T19:30:09.884Z,101212.39
2018-12-17T19:32:40.324Z,101214.39
2018-12-17T19:35:08.454Z,101218.04
2018-12-17T19:37:36.602Z,101211.37
2018-12-17T19:40:06.148Z,101221.22
2018-12-17T19:42:34.331Z,101226.06
2018-12-17T19:45:02.572Z,101227.24
2018-12-17T19:47:30.795Z,101224.36
2018-12-17T19:49:59.520Z,101231.69
2018-12-17T19:52:27.689Z,101229.81
2018-12-17T19:54:55.821Z,101232.46
2018-12-17T19:57:24.156Z,101228.22
2018-12-17T19:59:52.297Z,101233.75
2018-12-17T20:02:20.451Z,101241.91
2018-12-17T20:04:48.648Z,101239.09
2018-12-17T20:07:16.821Z,101246.48
2018-12-17T20:09:44.920Z,101252.84
2018-12-17T20:12:13.206Z,101251.02
2018-12-17T20:14:41.356Z,101260.75
2018-12-17T20:17:09.508Z,101254.60
2018-12-17T20:19:37.696Z,101257.13
2018-12-17T20:22:05.827Z,101254.63
2018-12-17T20:24:33.994Z,101261.17
2018-12-17T20:27:02.124Z,101255.14
2018-12-17T20:29:31.184Z,101256.50
2018-12-17T20:32:00.246Z,101261.14
2018-12-17T20:34:28.462Z,101269.52
2018-12-17T20:36:56.631Z,101264.17
2018-12-17T20:39:24.839Z,101269.98
2018-12-17T20:41:53.068Z,101265.48
2018-12-17T20:44:21.208Z,101262.83
2018-12-17T20:46:49.560Z,101262.98
2018-12-17T20:49:17.769Z,101262.67
2018-12-17T20:51:46.356Z,101261.99
2018-12-17T20:57:00.416Z,101261.49
2018-12-17T20:59:28.611Z,101270.20
2018-12-17T21:01:56.860Z,101275.20
2018-12-17T21:04:25.061Z,101275.56
2018-12-17T21:06:53.316Z,101279.89
2018-12-17T21:09:21.457Z,101285.04
2018-12-17T21:11:49.579Z,101276.25
2018-12-17T21:14:23.451Z,101283.75
2018-12-17T21:16:47.900Z,101281.36
2018-12-17T21:19:16.144Z,101288.21
2018-12-17T21:21:44.396Z,101285.98
2018-12-17T21:24:12.647Z,101283.09
2018-12-17T21:26:41.406Z,101280.35
2018-12-17T21:29:09.567Z,101282.20
2018-12-17T21:31:37.849Z,101284.50
2018-12-17T21:34:05.985Z,101276.78
2018-12-17T21:36:34.124Z,101285.20
2018-12-17T21:39:02.553Z,101283.83
2018-12-17T21:41:30.705Z,101284.50
2018-12-17T21:43:58.869Z,101291.16
2018-12-17T21:46:29.858Z,101291.36
2018-12-17T21:48:58.007Z,101291.37
2018-12-17T21:51:26.126Z,101288.44
2018-12-17T21:53:54.282Z,101300.14
2018-12-17T21:56:22.439Z,101299.88
2018-12-17T21:58:50.705Z,101305.55
2018-12-17T22:01:18.987Z,101309.58
2018-12-17T22:03:47.119Z,101304.58
2018-12-17T22:06:15.992Z,101309.03
2018-12-17T22:08:44.273Z,101305.73
2018-12-17T22:11:12.573Z,101305.21
2018-12-17T22:13:40.688Z,101307.97
2018-12-17T22:16:08.783Z,101315.63
2018-12-17T22:18:37.003Z,101313.94
2018-12-17T22:21:05.432Z,101314.06
2018-12-17T22:23:33.717Z,101319.96
2018-12-17T22:26:01.892Z,101325.77
2018-12-17T22:28:30.208Z,101317.12
2018-12-17T22:30:58.521Z,101317.32
2018-12-17T22:33:26.834Z,101322.59
2018-12-17T22:35:54.967Z,101323.41
2018-12-17T22:38:23.139Z,101312.17
2018-12-17T22:40:51.281Z,101312.00
2018-12-17T22:43:19.483Z,101310.58
2018-12-17T22:45:48.165Z,101314.91
2018-12-17T22:48:16.550Z,101317.58
2018-12-17T22:50:44.724Z,101324.39
2018-12-17T22:53:12.829Z,101320.97
2018-12-17T22:55:41.024Z,101326.67
2018-12-17T22:58:09.326Z,101325.08
2018-12-17T23:00:37.766Z,101323.70
2018-12-17T23:03:06.072Z,101321.42
2018-12-17T23:05:34.564Z,101331.27
2018-12-17T23:08:02.678Z,101323.70
2018-12-17T23:10:48.054Z,101325.69
2018-12-17T23:13:33.603Z,101315.00
2018-12-17T23:16:19.092Z,101322.23
2018-12-17T23:18:45.586Z,101331.44
2018-12-17T23:21:14.126Z,101338.64
2018-12-17T23:23:42.560Z,101338.96
2018-12-17T23:26:10.930Z,101338.47
2018-12-17T23:28:39.394Z,101335.80
2018-12-17T23:31:08.679Z,101330.74
2018-12-17T23:33:36.898Z,101325.31
2018-12-17T23:36:07.117Z,101323.88
2018-12-17T23:38:35.592Z,101322.20
2018-12-17T23:41:03.782Z,101325.34
2018-12-17T23:43:31.973Z,101325.17
2018-12-17T23:46:00.161Z,101324.52
2018-12-17T23:48:28.597Z,101315.98
2018-12-17T23:50:56.768Z,101328.63
2018-12-17T23:53:24.872Z,101329.44
2018-12-17T23:55:53.000Z,101321.13
2018-12-17T23:58:21.345Z,101327.15
